Pope Air Force Base
KPOB : rendu visible

Aérodrome :











RETROUVEZ-NOUS SUR...

 
LOGIN :

S'inscrire | Disclaimer

   EN    FR    IT 

 









Légende :    VFR   VFR Marginal   IFR   IFR Intensif   IFR Très Intensif
Visi : 
Plafond : 
>= 8 km
>= 3000ft
5 à 8 km
1000 à 3000 ft
1500m à 5 km
500 à 1000 ft
800 à 1500m
200 à 500 ft
< 800m
< 200 ft
Symboles :   Orages  Brouillard  Fortes neiges  Fortes précipitations  Vent > 20 kt






- Altitude de l'aérodrome : 217 ft


KPOB - Pope Air Force Base

DERNIER METAR :
  • 251056Z AUTO 25010KT 10SM FEW035 OVC065 10/09 A2989 RMK AO2 SLP124 T01030089 $

METARs EXPIRÉS :
  • 250956Z AUTO 25007KT 10SM BKN085 11/09 A2988 RMK AO2 SLP121 T01090092 $
  • 250856Z AUTO 26005KT 10SM FEW021 FEW034 BKN043 OVC055 12/10 A2988 RMK AO2 RAE0758DZB0758E22RAB22E32DZB32E37DZB41E42RAB42E52DZB52E53 SLP121 P0000 60013 T01200101 $
  • 250837Z AUTO 25004KT 10SM FEW006 SCT012 SCT021 BKN036 OVC043 12/11 A2988 RMK AO2 RAE0758DZB0758E22RAB22E32DZB32E37 SLP121 $
  • 250826Z AUTO 26008KT 10SM -RA SCT006 BKN012 BKN022 OVC041 12/11 A2989 RMK AO2 RAE0758DZB0758E22RAB22 CIG 006V012 SLP124 $

TAF TAF KPOB
Valide du 25 à 10h jusqu'au 26 à 16h UTC


251000Z 2510/2616 27006KT 9999 SCT090 QNH2985INS
BECMG 2512/2513 27010G15KT 9999 SKC QNH2993INS
BECMG 2522/2523 27006KT 9999 SKC QNH2997INS TX15/2520Z TN02/2510Z



MET'MAP, la Météo Aéronautique d'un coup d'oeil ! - Copyright ORBIFLY Décembre 2007 - Disclaimer

ORBIFLY MET'MAP TEAM :

Programmation & Développement : Alexandra Zaïnal
Sur une idée originale de : Baudouin d'Aumeries
Assistance à la programmation : Marc-Olivier Méhu
Soutien technique & logistique : Manuel Goepfert

Contact : metmap@orbifly.com




SOURCES & CREDITS :

   NOAA       Earth
Advisory